Time;durP1;ratioP1;P1;durP2;ratioP2;P2;SDS_P1;SDS_P2;PMS_P1;PMS_P2;Temp;Humidity;BMP_temperature;BMP_pressure;BME280_temperature;BME280_humidity;BME280_pressure;Samples;Min_cycle;Max_cycle;Signal;HPM_P1;HPM_P2
2022/02/22 00:00:08;;;;;;;;;10.75;7.00;;;;;9.99;63.56;102078.91;5111043;27;45494;-63
2022/02/22 00:02:34;;;;;;;;;9.75;8.50;;;;;9.94;63.27;102073.81;5083529;27;45382;-64
2022/02/22 00:04:59;;;;;;;;;8.75;5.25;;;;;9.91;63.76;102076.56;5083691;27;45451;-63
2022/02/22 00:07:25;;;;;;;;;11.00;7.00;;;;;9.89;63.68;102082.78;5083706;28;46123;-63
2022/02/22 00:09:50;;;;;;;;;12.50;6.75;;;;;9.86;64.08;102080.25;5083469;27;45319;-63
2022/02/22 00:12:16;;;;;;;;;15.25;6.50;;;;;9.84;63.83;102082.94;5082834;27;45368;-64
2022/02/22 00:14:42;;;;;;;;;12.50;5.25;;;;;9.84;64.49;102089.97;5083483;27;45592;-64
2022/02/22 00:17:08;;;;;;;;;12.00;6.50;;;;;9.81;64.47;102088.31;5083627;27;45514;-64
2022/02/22 00:19:34;;;;;;;;;9.75;7.25;;;;;9.81;64.20;102083.06;5083309;27;45240;-64
2022/02/22 00:21:59;;;;;;;;;12.50;6.75;;;;;9.79;64.55;102085.75;5083657;28;45152;-64
2022/02/22 00:24:25;;;;;;;;;16.75;8.75;;;;;9.78;64.54;102077.88;5083560;28;45477;-64
2022/02/22 00:26:51;;;;;;;;;12.75;8.25;;;;;9.79;64.30;102088.38;5088181;27;46132;-63
2022/02/22 00:29:16;;;;;;;;;20.50;8.75;;;;;9.76;64.77;102091.09;5103404;27;45320;-64
2022/02/22 00:31:42;;;;;;;;;19.50;7.00;;;;;9.71;64.59;102093.00;5085480;27;45272;-64
2022/02/22 00:34:07;;;;;;;;;11.50;7.25;;;;;9.69;64.54;102089.59;5086258;27;45494;-64
2022/02/22 00:36:34;;;;;;;;;24.00;7.00;;;;;9.67;65.20;102094.03;5083167;28;46184;-64
2022/02/22 00:39:02;;;;;;;;;18.25;6.75;;;;;9.65;64.99;102088.00;5085872;27;45363;-64
2022/02/22 00:41:27;;;;;;;;;11.50;7.50;;;;;9.62;65.44;102098.59;5092773;27;45509;-64
2022/02/22 00:43:53;;;;;;;;;13.50;5.50;;;;;9.60;65.52;102094.31;5082962;27;45197;-64
2022/02/22 00:46:18;;;;;;;;;16.00;4.50;;;;;9.57;65.09;102090.00;5083017;27;46203;-64
2022/02/22 00:48:44;;;;;;;;;13.00;3.50;;;;;9.58;65.22;102078.56;5082750;27;45166;-64
2022/02/22 00:51:10;;;;;;;;;15.25;6.50;;;;;9.58;65.35;102088.25;5083215;27;45350;-63
2022/02/22 00:53:35;;;;;;;;;16.50;8.00;;;;;9.57;65.62;102083.91;5094809;27;45190;-63
2022/02/22 00:56:01;;;;;;;;;15.50;5.00;;;;;9.54;65.85;102092.72;5082889;27;46105;-63
2022/02/22 00:58:26;;;;;;;;;13.50;6.00;;;;;9.54;65.75;102091.88;5081813;27;45263;-64
2022/02/22 01:00:52;;;;;;;;;17.50;7.50;;;;;9.53;65.53;102101.53;5092479;27;45370;-63
2022/02/22 01:03:17;;;;;;;;;12.00;7.25;;;;;9.52;65.47;102105.09;5082584;27;45357;-63
2022/02/22 01:05:42;;;;;;;;;13.25;6.25;;;;;9.49;65.58;102102.56;5082996;28;45304;-64
2022/02/22 01:08:08;;;;;;;;;17.25;9.00;;;;;9.49;65.80;102108.69;5082595;27;45478;-63
2022/02/22 01:10:34;;;;;;;;;14.50;6.00;;;;;9.47;65.51;102112.25;5082881;27;45426;-63
2022/02/22 01:13:00;;;;;;;;;9.75;6.75;;;;;9.46;65.72;102106.13;5082846;27;45445;-63
2022/02/22 01:15:25;;;;;;;;;7.50;6.75;;;;;9.45;65.78;102111.44;5082587;28;45392;-64
2022/02/22 01:17:51;;;;;;;;;8.75;5.25;;;;;9.43;65.92;102102.75;5082499;27;45253;-63
2022/02/22 01:20:17;;;;;;;;;9.50;5.50;;;;;9.43;65.98;102121.16;5082663;28;45395;-63
2022/02/22 01:22:42;;;;;;;;;18.50;8.25;;;;;9.40;66.28;102119.50;5082540;28;45307;-63
2022/02/22 01:25:10;;;;;;;;;14.75;6.00;;;;;9.40;66.00;102127.41;5082468;28;45391;-63
2022/02/22 01:27:36;;;;;;;;;15.00;8.00;;;;;9.38;65.87;102123.94;5093755;27;45366;-63
2022/02/22 01:30:07;;;;;;;;;11.25;7.50;;;;;9.38;66.41;102117.81;5102822;27;45263;-63
2022/02/22 01:32:33;;;;;;;;;15.50;6.00;;;;;9.34;66.53;102119.69;5098551;27;45498;-63
2022/02/22 01:34:58;;;;;;;;;8.25;6.00;;;;;9.31;66.17;102119.78;5082466;28;45557;-63
2022/02/22 01:37:24;;;;;;;;;17.25;6.75;;;;;9.27;66.68;102122.56;5064042;28;45167;-63
2022/02/22 01:39:49;;;;;;;;;10.25;6.00;;;;;9.26;66.28;102129.59;5092232;27;45376;-63
2022/02/22 01:42:15;;;;;;;;;15.50;8.00;;;;;9.23;66.93;102121.78;5084805;27;45162;-63
2022/02/22 01:44:40;;;;;;;;;9.00;7.00;;;;;9.22;66.86;102125.31;5082304;27;45779;-63
2022/02/22 01:47:07;;;;;;;;;11.00;5.25;;;;;9.18;66.52;102127.22;5080895;28;45338;-63
2022/02/22 01:49:34;;;;;;;;;9.00;4.75;;;;;9.15;66.64;102132.53;5081379;28;45410;-63
2022/02/22 01:52:01;;;;;;;;;12.00;7.00;;;;;9.15;67.08;102129.06;5084190;27;45562;-63
2022/02/22 01:54:27;;;;;;;;;11.25;3.00;;;;;9.12;66.84;102123.91;5090718;27;46298;-63
2022/02/22 01:56:53;;;;;;;;;18.25;7.25;;;;;9.10;66.65;102125.72;5081876;28;45261;-63
2022/02/22 01:59:19;;;;;;;;;9.75;5.50;;;;;9.07;67.06;102123.19;5081300;28;45418;-64
2022/02/22 02:01:46;;;;;;;;;11.75;4.00;;;;;9.06;67.31;102124.94;5081384;27;45657;-64
2022/02/22 02:04:12;;;;;;;;;17.75;6.25;;;;;9.03;67.49;102119.78;5074438;27;45539;-63
2022/02/22 02:06:38;;;;;;;;;16.00;6.00;;;;;9.03;67.05;102126.81;5084182;27;45362;-63
2022/02/22 02:09:06;;;;;;;;;20.00;8.75;;;;;9.00;67.46;102124.25;5081962;28;45322;-63
2022/02/22 02:11:46;;;;;;;;;11.50;6.00;;;;;8.99;67.27;102117.28;5081898;28;45581;-64
2022/02/22 02:14:11;;;;;;;;;15.50;8.00;;;;;8.99;67.12;102119.91;5081525;28;45274;-63
2022/02/22 02:16:37;;;;;;;;;11.50;3.75;;;;;8.98;67.49;102128.72;5092712;27;45256;-63
2022/02/22 02:19:03;;;;;;;;;6.25;6.00;;;;;8.98;67.45;102126.09;5096326;27;45349;-63
2022/02/22 02:21:30;;;;;;;;;10.50;6.00;;;;;8.95;67.54;102129.69;5081529;28;45347;-63
2022/02/22 02:24:16;;;;;;;;;18.25;8.25;;;;;8.92;67.32;102135.88;5080678;28;45457;-63
2022/02/22 02:26:43;;;;;;;;;9.50;7.75;;;;;8.93;67.82;102147.28;5091168;27;45331;-63
2022/02/22 02:29:10;;;;;;;;;21.75;7.00;;;;;8.90;67.57;102139.47;5101945;27;45257;-63
2022/02/22 02:31:39;;;;;;;;;13.00;8.25;;;;;8.85;67.83;102136.13;5101953;27;45354;-63
2022/02/22 02:34:06;;;;;;;;;17.25;6.75;;;;;8.84;67.93;102145.75;5084691;27;45426;-63
2022/02/22 02:36:36;;;;;;;;;15.75;7.00;;;;;8.84;67.95;102137.00;5081568;28;45277;-63
2022/02/22 02:39:04;;;;;;;;;20.00;8.75;;;;;8.84;67.92;102131.75;5084472;27;45283;-64
2022/02/22 02:41:29;;;;;;;;;11.50;6.75;;;;;8.82;67.98;102134.44;5090925;27;45530;-63
2022/02/22 02:44:04;;;;;;;;;14.00;6.75;;;;;8.82;67.83;102133.56;5080855;27;45970;-63
2022/02/22 02:46:30;;;;;;;;;13.00;7.25;;;;;8.79;68.00;102133.66;5081009;28;45423;-63
2022/02/22 02:48:55;;;;;;;;;12.50;4.50;;;;;8.78;68.07;102151.22;5081143;28;45252;-63
2022/02/22 02:51:22;;;;;;;;;19.50;6.00;;;;;8.78;68.08;102153.84;5081334;28;45775;-63
2022/02/22 02:53:49;;;;;;;;;14.50;10.00;;;;;8.76;67.96;102153.00;5093407;27;46294;-63
2022/02/22 02:56:15;;;;;;;;;13.75;6.00;;;;;8.76;68.06;102167.91;5081131;28;45225;-63
2022/02/22 02:58:40;;;;;;;;;10.25;5.50;;;;;8.74;68.31;102162.69;5081023;28;45157;-63
2022/02/22 03:01:06;;;;;;;;;11.75;7.75;;;;;8.71;68.11;102170.69;5081285;27;45390;-64
2022/02/22 03:03:31;;;;;;;;;13.75;7.50;;;;;8.66;68.21;102165.53;5080664;28;45318;-63
2022/02/22 03:05:58;;;;;;;;;13.75;7.25;;;;;8.65;68.40;102176.94;5075271;27;45211;-63
2022/02/22 03:08:23;;;;;;;;;16.25;6.00;;;;;8.64;68.11;102182.25;5082169;27;45550;-63
2022/02/22 03:10:49;;;;;;;;;12.75;7.25;;;;;8.63;68.24;102176.16;5081143;28;45512;-63
2022/02/22 03:13:14;;;;;;;;;17.50;7.00;;;;;8.64;68.29;102163.88;5081356;27;45392;-63
2022/02/22 03:15:40;;;;;;;;;14.25;5.50;;;;;8.64;68.55;102166.50;5088857;27;45313;-63
2022/02/22 03:18:05;;;;;;;;;13.50;6.50;;;;;8.62;68.03;102166.53;5080868;27;45446;-63
2022/02/22 03:20:31;;;;;;;;;16.50;6.50;;;;;8.63;68.24;102173.53;5080744;28;45324;-63
2022/02/22 03:22:56;;;;;;;;;19.50;7.50;;;;;8.64;68.59;102174.38;5080488;28;45558;-63
2022/02/22 03:25:22;;;;;;;;;10.50;5.50;;;;;8.64;68.48;102172.59;5080973;28;45320;-63
2022/02/22 03:27:48;;;;;;;;;16.25;6.00;;;;;8.63;68.58;102170.03;5096696;27;45254;-63
2022/02/22 03:30:14;;;;;;;;;22.00;6.00;;;;;8.66;68.56;102177.81;5104806;27;45629;-63
2022/02/22 03:32:39;;;;;;;;;14.75;5.50;;;;;8.63;68.55;102165.63;5099186;27;45642;-63
2022/02/22 03:35:05;;;;;;;;;22.25;8.25;;;;;8.65;68.65;102168.22;5084293;27;45281;-64
2022/02/22 03:37:31;;;;;;;;;13.00;7.00;;;;;8.63;68.84;102172.66;5084242;28;45429;-62
2022/02/22 03:39:56;;;;;;;;;8.00;6.25;;;;;8.59;68.36;102165.75;5095228;27;45275;-63
2022/02/22 03:42:21;;;;;;;;;12.75;6.25;;;;;8.60;68.63;102168.34;5086059;27;45309;-64
2022/02/22 03:44:47;;;;;;;;;14.00;5.50;;;;;8.63;68.81;102170.03;5084117;28;45253;-64
2022/02/22 03:47:12;;;;;;;;;16.25;9.00;;;;;8.63;68.89;102160.38;5084065;27;45295;-64
2022/02/22 03:49:38;;;;;;;;;15.50;6.50;;;;;8.66;68.80;102159.44;5083960;27;45522;-63
2022/02/22 03:52:04;;;;;;;;;17.00;9.75;;;;;8.67;68.46;102158.53;5086606;27;45326;-63
2022/02/22 03:54:29;;;;;;;;;21.00;7.00;;;;;8.70;68.76;102154.97;5093037;27;45323;-63
2022/02/22 03:56:55;;;;;;;;;13.00;6.00;;;;;8.73;68.47;102155.72;5084029;27;45368;-63
2022/02/22 03:59:20;;;;;;;;;5.25;3.25;;;;;8.74;68.62;102154.81;5083784;27;45467;-63
2022/02/22 04:01:46;;;;;;;;;7.75;7.50;;;;;8.73;68.88;102155.72;5083630;27;45605;-63
2022/02/22 04:04:11;;;;;;;;;12.25;5.75;;;;;8.77;68.83;102151.22;5083790;28;45303;-64
2022/02/22 04:06:37;;;;;;;;;12.25;5.50;;;;;8.81;68.46;102148.47;5083220;27;45449;-63
2022/02/22 04:09:03;;;;;;;;;21.50;7.75;;;;;8.80;68.29;102149.38;5081890;28;45463;-64
2022/02/22 04:11:28;;;;;;;;;23.25;11.00;;;;;8.81;68.30;102155.50;5082300;27;45356;-65
2022/02/22 04:13:54;;;;;;;;;16.00;6.00;;;;;8.82;68.02;102155.44;5083463;28;45230;-63
2022/02/22 04:16:19;;;;;;;;;23.00;8.50;;;;;8.86;68.57;102157.09;5083292;28;45366;-63
2022/02/22 04:18:45;;;;;;;;;28.25;10.00;;;;;8.89;68.21;102158.75;5083649;28;45243;-63
2022/02/22 04:21:10;;;;;;;;;18.75;7.00;;;;;8.92;68.17;102166.53;5083248;27;45629;-63
2022/02/22 04:23:36;;;;;;;;;14.00;7.75;;;;;8.94;67.94;102170.00;5083010;28;45358;-63
2022/02/22 04:26:02;;;;;;;;;15.00;6.00;;;;;8.93;68.01;102169.16;5083201;27;45382;-63
2022/02/22 04:28:27;;;;;;;;;22.50;10.50;;;;;8.91;67.99;102176.19;5102043;27;45164;-62
2022/02/22 04:30:53;;;;;;;;;17.50;8.25;;;;;8.92;67.88;102182.31;5103383;27;46215;-63
2022/02/22 04:33:18;;;;;;;;;20.25;7.75;;;;;8.87;68.12;102177.22;5093039;27;45415;-64
2022/02/22 04:35:44;;;;;;;;;11.25;6.00;;;;;8.89;68.04;102183.28;5082356;27;45605;-64
2022/02/22 04:38:09;;;;;;;;;14.00;9.00;;;;;8.90;68.20;102182.34;5092630;27;45429;-64
2022/02/22 04:40:35;;;;;;;;;16.75;6.25;;;;;8.92;67.89;102174.44;5095760;27;46113;-64
2022/02/22 04:43:00;;;;;;;;;17.00;6.25;;;;;8.97;68.20;102184.81;5083199;28;45436;-62
2022/02/22 04:45:26;;;;;;;;;18.50;9.00;;;;;8.99;67.96;102181.22;5083109;27;45323;-63
2022/02/22 04:47:55;;;;;;;;;8.50;5.25;;;;;8.99;67.90;102181.22;5083065;27;45345;-62
2022/02/22 04:50:22;;;;;;;;;16.50;8.00;;;;;9.01;67.65;102179.44;5082911;27;45348;-63
2022/02/22 04:52:48;;;;;;;;;13.75;6.75;;;;;9.00;67.52;102176.81;5092303;27;45376;-62
2022/02/22 04:55:14;;;;;;;;;20.50;10.50;;;;;8.97;67.53;102179.56;5086441;27;45368;-63
2022/02/22 04:57:40;;;;;;;;;12.75;8.25;;;;;8.93;67.80;102194.56;5083333;28;45489;-63
2022/02/22 05:00:09;;;;;;;;;10.50;4.50;;;;;8.92;67.85;102193.69;5082304;28;46137;-63
2022/02/22 05:02:34;;;;;;;;;16.75;8.00;;;;;8.91;67.79;102191.09;5082729;28;45585;-63
2022/02/22 05:05:00;;;;;;;;;26.00;6.00;;;;;8.86;67.59;102193.88;5082676;27;45289;-63
2022/02/22 05:07:25;;;;;;;;;7.50;6.00;;;;;8.83;67.84;102203.59;5083069;28;45374;-63
2022/02/22 05:09:51;;;;;;;;;12.50;7.00;;;;;8.78;67.67;102201.13;5082729;28;46223;-63
2022/02/22 05:12:16;;;;;;;;;11.50;4.25;;;;;8.77;67.87;102198.50;5082777;28;45232;-63
2022/02/22 05:14:42;;;;;;;;;23.50;8.50;;;;;8.75;67.62;102195.09;5082532;27;45238;-63
2022/02/22 05:17:08;;;;;;;;;22.25;9.50;;;;;8.74;67.89;102191.59;5082732;27;45311;-63
2022/02/22 05:19:33;;;;;;;;;19.75;8.50;;;;;8.77;67.90;102193.25;5082246;27;45512;-63
2022/02/22 05:21:59;;;;;;;;;13.25;6.00;;;;;8.79;67.82;102194.09;5082569;28;45433;-63
2022/02/22 05:24:24;;;;;;;;;14.25;7.75;;;;;8.81;67.85;102190.50;5082580;27;45446;-63
2022/02/22 05:26:50;;;;;;;;;18.50;11.25;;;;;8.85;67.95;102188.69;5087970;27;45324;-63
2022/02/22 05:29:15;;;;;;;;;14.75;6.00;;;;;8.87;67.79;102184.22;5102425;27;45980;-63
2022/02/22 05:31:41;;;;;;;;;17.75;6.50;;;;;8.92;67.61;102183.16;5102781;27;45326;-63
2022/02/22 05:34:07;;;;;;;;;15.00;6.50;;;;;8.96;67.56;102178.69;5085195;27;45488;-63
2022/02/22 05:36:32;;;;;;;;;16.75;11.75;;;;;8.97;67.85;102190.06;5082499;28;45394;-64
2022/02/22 05:38:58;;;;;;;;;15.25;8.25;;;;;8.98;67.48;102178.66;5084748;27;46238;-63
2022/02/22 05:41:23;;;;;;;;;15.25;6.00;;;;;8.97;67.43;102188.31;5092213;27;45263;-63
2022/02/22 05:43:50;;;;;;;;;16.50;6.00;;;;;9.01;67.17;102194.34;5082018;28;45323;-63
2022/02/22 05:46:17;;;;;;;;;17.00;8.00;;;;;9.03;67.17;102197.78;5074564;27;45497;-64
2022/02/22 05:48:42;;;;;;;;;15.00;10.25;;;;;9.06;67.44;102190.66;5084685;27;46392;-63
2022/02/22 05:51:09;;;;;;;;;11.50;7.00;;;;;9.09;67.08;102185.31;5081006;28;45240;-63
2022/02/22 05:53:35;;;;;;;;;13.75;4.25;;;;;9.12;66.78;102185.22;5092389;27;45634;-63
2022/02/22 05:56:01;;;;;;;;;17.25;8.50;;;;;9.13;67.10;102183.44;5081884;28;45391;-63
2022/02/22 05:58:27;;;;;;;;;18.75;6.50;;;;;9.12;66.75;102182.59;5081741;27;45363;-63
2022/02/22 06:00:52;;;;;;;;;17.00;8.00;;;;;9.11;67.20;102167.72;5081522;28;45382;-63
2022/02/22 06:03:18;;;;;;;;;18.00;6.50;;;;;9.11;68.00;102172.13;5081449;28;45410;-63
2022/02/22 06:05:43;;;;;;;;;15.50;7.00;;;;;9.09;67.93;102168.69;5082095;27;45328;-63
2022/02/22 06:08:08;;;;;;;;;23.00;8.75;;;;;9.09;67.80;102164.31;5083225;27;45690;-63
2022/02/22 06:10:34;;;;;;;;;15.00;8.25;;;;;9.12;67.47;102168.59;5089376;27;45314;-63
2022/02/22 06:12:59;;;;;;;;;13.25;7.00;;;;;9.13;67.62;102160.66;5088148;27;45274;-68
2022/02/22 06:15:25;;;;;;;;;13.25;4.00;;;;;9.18;67.77;102163.16;5092569;27;45817;-62
2022/02/22 06:17:50;;;;;;;;;18.00;8.25;;;;;9.18;67.53;102158.75;5087860;27;45465;-62
2022/02/22 06:20:16;;;;;;;;;14.50;7.50;;;;;9.21;67.94;102161.28;5084339;27;45514;-63
2022/02/22 06:22:42;;;;;;;;;16.75;7.00;;;;;9.25;67.90;102167.31;5088349;27;45249;-61
2022/02/22 06:25:09;;;;;;;;;16.75;9.50;;;;;9.26;67.82;102163.78;5082429;27;45534;-62
2022/02/22 06:27:49;;;;;;;;;21.75;8.75;;;;;9.23;67.61;102162.09;5098657;27;45266;-62
2022/02/22 06:30:15;;;;;;;;;10.25;4.75;;;;;9.25;67.33;102161.19;5102575;27;45213;-62
2022/02/22 06:32:40;;;;;;;;;9.50;5.50;;;;;9.23;67.59;102169.97;5096484;27;45282;-62
2022/02/22 06:35:07;;;;;;;;;14.50;7.00;;;;;9.22;67.49;102172.66;5081687;27;45597;-62
2022/02/22 06:37:32;;;;;;;;;18.25;6.00;;;;;9.26;67.79;102183.97;5083689;27;45369;-62
2022/02/22 06:39:59;;;;;;;;;12.50;8.00;;;;;9.26;67.73;102170.81;5096921;27;45615;-62
2022/02/22 06:42:25;;;;;;;;;12.25;7.00;;;;;9.27;67.57;102170.75;5086648;27;45662;-62
2022/02/22 06:44:50;;;;;;;;;17.75;7.25;;;;;9.29;67.58;102176.81;5094290;27;45316;-62
2022/02/22 06:47:16;;;;;;;;;16.25;8.50;;;;;9.32;67.30;102173.22;5097439;27;46412;-61
2022/02/22 06:49:42;;;;;;;;;15.50;7.75;;;;;9.34;67.39;102176.69;5098388;27;45457;-62
2022/02/22 06:52:08;;;;;;;;;8.75;6.25;;;;;9.33;67.53;102178.47;5063158;27;45437;-62
2022/02/22 06:54:34;;;;;;;;;13.50;5.50;;;;;9.36;67.52;102175.72;5069081;27;45190;-62
2022/02/22 06:56:59;;;;;;;;;17.50;10.00;;;;;9.41;67.82;102170.34;5081314;27;45262;-62
2022/02/22 06:59:25;;;;;;;;;12.50;6.25;;;;;9.42;67.69;102175.53;5084412;27;45439;-62
2022/02/22 07:01:50;;;;;;;;;18.50;8.00;;;;;9.44;67.61;102180.75;5092839;27;45329;-62
2022/02/22 07:04:16;;;;;;;;;13.00;5.50;;;;;9.46;67.47;102181.56;5087544;27;45181;-62
2022/02/22 07:06:41;;;;;;;;;16.50;8.25;;;;;9.45;67.39;102179.84;5087474;27;45205;-63
2022/02/22 07:09:07;;;;;;;;;17.00;7.50;;;;;9.48;67.07;102192.91;5087169;27;45441;-63
2022/02/22 07:11:33;;;;;;;;;8.75;4.50;;;;;9.50;67.17;102185.81;5086907;27;45303;-63
2022/02/22 07:13:58;;;;;;;;;17.75;7.50;;;;;9.51;67.11;102169.97;5087138;27;45617;-63
2022/02/22 07:16:24;;;;;;;;;13.75;7.50;;;;;9.52;67.16;102182.22;5089151;27;45751;-63
2022/02/22 07:18:50;;;;;;;;;15.00;9.00;;;;;9.50;66.94;102177.94;5098768;27;46424;-63
2022/02/22 07:21:15;;;;;;;;;13.25;8.00;;;;;9.48;67.13;102175.34;5074841;27;45382;-64
2022/02/22 07:23:41;;;;;;;;;14.75;6.75;;;;;9.50;67.27;102173.53;5092691;27;45407;-63
2022/02/22 07:26:06;;;;;;;;;12.00;4.25;;;;;9.51;67.45;102179.66;5087255;27;45738;-63
2022/02/22 07:28:32;;;;;;;;;16.00;7.00;;;;;9.52;67.40;102174.34;5099624;27;45385;-63
2022/02/22 07:30:57;;;;;;;;;9.25;6.50;;;;;9.55;66.87;102175.13;5091917;27;45235;-64
2022/02/22 07:33:23;;;;;;;;;13.00;6.00;;;;;9.55;66.79;102175.13;5098986;27;45468;-64
2022/02/22 07:35:49;;;;;;;;;27.25;9.50;;;;;9.58;67.30;102188.22;5098316;27;45410;-63
2022/02/22 07:38:14;;;;;;;;;13.00;4.00;;;;;9.60;66.90;102187.25;5103701;27;45239;-61
2022/02/22 07:40:40;;;;;;;;;17.25;6.00;;;;;9.64;67.16;102185.38;5102634;27;45289;-62
2022/02/22 07:43:06;;;;;;;;;20.75;9.00;;;;;9.68;67.07;102187.00;5099578;27;45350;-63
2022/02/22 07:45:32;;;;;;;;;14.00;9.50;;;;;9.71;66.75;102185.09;5088796;27;46077;-69
2022/02/22 07:47:57;;;;;;;;;26.50;8.75;;;;;9.75;66.90;102184.13;5087122;27;45430;-65
2022/02/22 07:50:23;;;;;;;;;18.75;9.50;;;;;9.78;67.06;102183.16;5100509;27;46493;-66
2022/02/22 07:52:49;;;;;;;;;20.00;9.25;;;;;9.76;66.55;102169.19;5095496;27;45462;-65
2022/02/22 07:55:14;;;;;;;;;14.75;8.50;;;;;9.74;66.75;102174.50;5086481;27;46124;-65
2022/02/22 07:57:40;;;;;;;;;10.75;7.00;;;;;9.73;66.91;102172.78;5087340;27;45331;-65
2022/02/22 08:00:10;;;;;;;;;14.00;7.25;;;;;9.76;67.03;102174.44;5094368;27;45439;-65
2022/02/22 08:02:36;;;;;;;;;8.00;5.50;;;;;9.79;67.46;102179.59;5086942;27;45269;-65
2022/02/22 08:05:02;;;;;;;;;11.75;8.00;;;;;9.84;66.99;102174.19;5086740;27;46290;-66
2022/02/22 08:07:28;;;;;;;;;19.00;7.00;;;;;9.90;67.85;102169.59;5071308;27;45666;-65
2022/02/22 08:09:53;;;;;;;;;22.25;6.75;;;;;9.97;67.16;102170.25;5088047;27;45334;-66
2022/02/22 08:12:19;;;;;;;;;9.25;7.75;;;;;9.99;67.59;102173.69;5086649;27;45326;-65
2022/02/22 08:14:44;;;;;;;;;41.00;28.00;;;;;10.00;67.19;102162.25;5082193;28;45429;-66
2022/02/22 08:17:10;;;;;;;;;12.00;6.75;;;;;10.05;67.54;102161.19;5083926;27;45382;-65
2022/02/22 08:19:35;;;;;;;;;13.00;8.00;;;;;10.11;67.51;102160.13;5083368;27;45532;-65
2022/02/22 08:22:01;;;;;;;;;12.25;8.25;;;;;10.17;67.19;102165.16;5083526;28;45371;-65
2022/02/22 08:24:27;;;;;;;;;10.75;5.25;;;;;10.19;67.37;102160.72;5083112;27;46193;-65
2022/02/22 08:26:55;;;;;;;;;12.50;7.50;;;;;10.19;67.37;102158.06;5088487;27;45312;-65
2022/02/22 08:29:22;;;;;;;;;12.50;7.25;;;;;10.19;66.90;102165.97;5103714;27;45335;-66
2022/02/22 08:31:47;;;;;;;;;11.25;6.00;;;;;10.19;66.91;102168.59;5103679;27;45512;-65
2022/02/22 08:34:13;;;;;;;;;16.75;8.25;;;;;10.17;66.83;102177.44;5085220;27;45177;-65
2022/02/22 08:36:39;;;;;;;;;11.00;6.50;;;;;10.11;66.77;102170.66;5094315;27;45509;-66
2022/02/22 08:39:05;;;;;;;;;19.00;8.75;;;;;10.12;67.52;102187.31;5103023;27;45338;-65
2022/02/22 08:41:31;;;;;;;;;14.50;7.00;;;;;10.19;67.16;102168.59;5094941;27;45343;-65
2022/02/22 08:44:01;;;;;;;;;17.50;7.00;;;;;10.26;67.59;102158.72;5088660;27;45838;-65
2022/02/22 08:46:26;;;;;;;;;13.75;6.25;;;;;10.31;67.34;102151.53;5091603;27;45304;-66
2022/02/22 08:48:52;;;;;;;;;17.00;7.25;;;;;10.33;67.16;102157.59;5092322;27;45351;-66
2022/02/22 08:51:17;;;;;;;;;13.75;6.00;;;;;10.36;67.08;102154.03;5087383;27;45292;-65
2022/02/22 08:53:43;;;;;;;;;12.25;7.00;;;;;10.46;67.49;102147.50;5086830;27;47143;-66
2022/02/22 08:56:09;;;;;;;;;10.50;7.25;;;;;10.57;66.86;102146.19;5079663;27;45394;-65
2022/02/22 08:58:35;;;;;;;;;13.75;6.75;;;;;10.60;66.65;102146.09;5084573;27;45409;-65
2022/02/22 09:01:01;;;;;;;;;17.50;8.25;;;;;10.62;66.46;102151.28;5082940;27;45398;-66
2022/02/22 09:03:27;;;;;;;;;11.50;5.75;;;;;10.65;67.12;102155.56;5082577;27;45387;-66
2022/02/22 09:05:53;;;;;;;;;10.50;7.75;;;;;10.70;67.07;102154.50;5082786;28;45367;-66
2022/02/22 09:08:20;;;;;;;;;6.00;5.25;;;;;10.71;67.25;102147.44;5083081;27;45252;-65
2022/02/22 09:10:47;;;;;;;;;12.00;9.00;;;;;10.64;68.07;102144.19;5082932;27;45395;-66
2022/02/22 09:13:13;;;;;;;;;14.75;7.75;;;;;10.63;68.65;102135.41;5082535;28;46325;-65
2022/02/22 09:15:39;;;;;;;;;17.00;5.25;;;;;10.65;68.71;102131.84;5082595;28;45382;-65
2022/02/22 09:18:05;;;;;;;;;13.75;8.25;;;;;10.61;68.13;102134.63;5082761;27;45319;-65
2022/02/22 09:20:31;;;;;;;;;10.25;3.25;;;;;10.60;68.53;102126.78;5076596;27;45306;-65
2022/02/22 09:22:57;;;;;;;;;15.50;6.25;;;;;10.59;68.30;102139.09;5083669;27;45252;-66
2022/02/22 09:25:24;;;;;;;;;14.75;7.00;;;;;10.64;68.29;102149.44;5082526;28;45421;-65
2022/02/22 09:27:50;;;;;;;;;15.25;7.00;;;;;10.69;68.29;102136.13;5096212;27;45347;-65
2022/02/22 09:30:18;;;;;;;;;16.25;5.75;;;;;10.72;68.41;102142.13;5102855;27;45247;-65
2022/02/22 09:32:46;;;;;;;;;10.50;6.75;;;;;10.82;68.46;102140.88;5098930;27;46325;-65
2022/02/22 09:35:17;;;;;;;;;8.50;4.75;;;;;10.85;68.50;102138.13;5082558;27;45433;-66
2022/02/22 09:37:43;;;;;;;;;12.00;5.25;;;;;10.94;68.29;102141.31;5082553;27;45320;-66
2022/02/22 09:40:09;;;;;;;;;10.50;6.25;;;;;11.00;68.35;102133.19;5084016;27;45552;-66
2022/02/22 09:42:35;;;;;;;;;8.50;7.50;;;;;11.08;68.06;102128.47;5081954;27;46349;-65
2022/02/22 09:45:01;;;;;;;;;9.25;7.50;;;;;11.14;67.85;102134.34;5082125;27;45264;-65
2022/02/22 09:47:26;;;;;;;;;7.50;5.00;;;;;11.22;68.02;102126.16;5082163;27;45377;-66
2022/02/22 09:49:52;;;;;;;;;8.25;4.25;;;;;11.28;67.64;102117.09;5082402;28;45273;-66
2022/02/22 09:52:18;;;;;;;;;8.25;4.75;;;;;11.35;67.99;102105.38;5082131;28;45244;-66
2022/02/22 09:54:43;;;;;;;;;9.25;4.50;;;;;11.51;67.98;102105.63;5082089;28;45323;-66
2022/02/22 09:57:09;;;;;;;;;12.75;7.00;;;;;11.65;67.49;102082.16;5092434;27;45217;-65
2022/02/22 09:59:35;;;;;;;;;11.00;8.00;;;;;11.80;67.73;102076.25;5081727;28;45251;-65
2022/02/22 10:02:01;;;;;;;;;9.25;6.00;;;;;11.93;66.96;102080.09;5081802;27;46410;-65
2022/02/22 10:04:27;;;;;;;;;8.50;2.00;;;;;12.04;66.88;102078.75;5081866;27;45224;-66
2022/02/22 10:07:02;;;;;;;;;19.00;7.25;;;;;12.14;66.71;102067.72;5081954;28;45284;-66
2022/02/22 10:09:27;;;;;;;;;7.50;4.25;;;;;12.23;66.43;102063.78;5082061;28;45351;-66
2022/02/22 10:11:54;;;;;;;;;8.25;4.25;;;;;12.33;66.40;102066.91;5081662;28;45444;-65
2022/02/22 10:14:28;;;;;;;;;10.00;4.00;;;;;12.48;66.07;102068.81;5081732;28;45351;-66
2022/02/22 10:16:55;;;;;;;;;8.75;5.25;;;;;12.63;65.82;102062.81;5081627;28;45322;-66
2022/02/22 10:19:24;;;;;;;;;5.25;3.75;;;;;12.67;65.40;102064.41;5081686;27;45345;-65
2022/02/22 10:21:56;;;;;;;;;8.75;4.50;;;;;12.58;65.64;102073.63;5081637;28;45279;-66
2022/02/22 10:24:23;;;;;;;;;10.75;4.50;;;;;12.52;65.59;102073.91;5063205;27;45537;-66
2022/02/22 10:27:02;;;;;;;;;9.75;4.00;;;;;12.53;65.77;102075.63;5072334;27;45304;-66
2022/02/22 10:29:30;;;;;;;;;10.25;5.00;;;;;12.55;65.78;102084.31;5083941;27;45495;-65
2022/02/22 10:31:55;;;;;;;;;5.00;2.75;;;;;12.54;65.65;102084.41;5092180;27;46201;-64
2022/02/22 10:34:31;;;;;;;;;7.00;4.00;;;;;12.52;65.80;102097.69;5084237;27;45338;-65
2022/02/22 10:36:56;;;;;;;;;7.50;3.25;;;;;12.43;65.63;102103.41;5082358;28;45319;-64
2022/02/22 10:39:22;;;;;;;;;6.75;3.50;;;;;12.39;66.03;102114.16;5082950;27;45445;-64
2022/02/22 10:41:52;;;;;;;;;9.50;4.00;;;;;12.34;66.05;102106.47;5082527;28;46005;-65
2022/02/22 10:44:36;;;;;;;;;8.00;2.25;;;;;12.36;66.13;102103.75;5081110;28;45185;-64
2022/02/22 10:47:06;;;;;;;;;10.00;3.25;;;;;12.22;66.27;102109.63;5081043;27;45313;-65
2022/02/22 10:49:34;;;;;;;;;3.00;2.25;;;;;12.13;66.61;102107.41;5081345;27;45322;-65
2022/02/22 10:52:08;;;;;;;;;7.25;3.00;;;;;12.05;66.69;102099.81;5062971;28;46862;-65
2022/02/22 10:54:34;;;;;;;;;2.50;2.25;;;;;12.00;66.88;102092.06;5073440;27;45414;-65
2022/02/22 10:57:00;;;;;;;;;8.00;3.00;;;;;11.98;67.11;102091.28;5093845;27;45181;-65
2022/02/22 10:59:26;;;;;;;;;7.75;3.00;;;;;12.00;67.28;102101.78;5081054;28;45244;-65
2022/02/22 11:01:54;;;;;;;;;7.00;3.00;;;;;11.95;67.10;102091.44;5080120;27;47904;-65
2022/02/22 11:04:19;;;;;;;;;3.00;2.25;;;;;11.94;67.41;102099.44;5090041;27;45379;-65
2022/02/22 11:06:45;;;;;;;;;3.50;2.00;;;;;11.97;67.30;102096.66;5080699;27;45334;-65
2022/02/22 11:09:17;;;;;;;;;6.25;3.00;;;;;11.99;67.63;102108.00;5081088;28;45337;-65
2022/02/22 11:11:56;;;;;;;;;7.25;2.00;;;;;12.02;67.65;102095.53;5081008;28;46006;-65
2022/02/22 11:14:25;;;;;;;;;3.75;2.00;;;;;12.05;67.57;102081.31;5076078;27;45460;-65
2022/02/22 11:16:53;;;;;;;;;7.50;3.25;;;;;12.10;67.57;102062.66;5080993;28;45437;-65
2022/02/22 11:19:24;;;;;;;;;8.75;5.00;;;;;12.19;67.71;102068.38;5081146;28;45370;-65